Time,TemperatureF,DewpointF,PressureIn,WindDirection,WindDirectionDegrees,WindSpeedMPH,WindSpeedGustMPH,Humidity,HourlyPrecipIn,Conditions,Clouds,dailyrainin,SoftwareType,DateUTC
2013-01-28 01:43:00,45.2,36.7,30.18,West,271,2.0,2.0,72,0.00,,,0.00,Wunderground v.1.15,2013-01-28 09:43:00,
2013-01-28 01:53:00,45.1,36.6,30.19,West,279,1.0,1.0,72,0.00,,,0.00,Wunderground v.1.15,2013-01-28 09:53:00,
2013-01-28 02:03:00,45.2,36.4,30.19,WNW,284,1.0,1.0,71,0.00,,,0.00,Wunderground v.1.15,2013-01-28 10:03:00,
2013-01-28 02:12:00,45.2,36.4,30.19,WNW,296,1.0,3.0,71,0.00,,,0.00,Wunderground v.1.15,2013-01-28 10:12:00,
2013-01-28 02:22:00,45.2,36.4,30.19,West,268,1.0,1.0,71,0.00,,,0.00,Wunderground v.1.15,2013-01-28 10:22:00,
2013-01-28 02:43:00,45.0,36.2,30.19,NW,322,1.0,1.0,71,0.00,,,0.00,Wunderground v.1.15,2013-01-28 10:43:00,
2013-01-28 02:53:00,45.0,36.2,30.19,WNW,302,1.0,3.0,71,0.00,,,0.00,Wunderground v.1.15,2013-01-28 10:53:00,
2013-01-28 03:03:00,45.0,36.2,30.19,NW,316,1.0,1.0,71,0.00,,,0.00,Wunderground v.1.15,2013-01-28 11:03:00,
2013-01-28 03:12:00,44.9,36.1,30.18,West,270,1.0,1.0,71,0.00,,,0.00,Wunderground v.1.15,2013-01-28 11:12:00,
2013-01-28 03:22:00,45.1,35.9,30.18,WNW,283,1.0,5.0,70,0.00,,,0.00,Wunderground v.1.15,2013-01-28 11:22:00,
2013-01-28 03:32:00,45.6,36.0,30.18,NW,318,2.0,2.0,69,0.00,,,0.00,Wunderground v.1.15,2013-01-28 11:32:00,
2013-01-28 03:43:00,46.1,36.1,30.18,NE,38,1.0,1.0,68,0.00,,,0.00,Wunderground v.1.15,2013-01-28 11:43:00,
2013-01-28 03:53:00,46.6,36.2,30.19,West,275,1.0,1.0,67,0.00,,,0.00,Wunderground v.1.15,2013-01-28 11:53:00,
2013-01-28 04:03:00,46.7,36.7,30.19,WNW,285,2.0,2.0,68,0.00,,,0.00,Wunderground v.1.15,2013-01-28 12:03:00,
2013-01-28 04:13:00,46.5,36.9,30.19,NW,310,1.0,1.0,69,0.00,,,0.00,Wunderground v.1.15,2013-01-28 12:13:00,
2013-01-28 04:23:00,46.5,37.2,30.19,ENE,62,1.0,1.0,70,0.00,,,0.00,Wunderground v.1.15,2013-01-28 12:23:00,
2013-01-28 04:33:00,46.3,37.4,30.19,WSW,253,1.0,2.0,71,0.00,,,0.00,Wunderground v.1.15,2013-01-28 12:33:00,
2013-01-28 04:43:00,46.0,37.8,30.18,NW,304,1.0,1.0,73,0.00,,,0.00,Wunderground v.1.15,2013-01-28 12:43:00,
2013-01-28 04:53:00,46.3,38.8,30.18,NW,310,2.0,2.0,75,0.00,,,0.00,Wunderground v.1.15,2013-01-28 12:53:00,
2013-01-28 05:03:00,46.5,39.3,30.18,East,91,1.0,1.0,76,0.00,,,0.00,Wunderground v.1.15,2013-01-28 13:03:00,
2013-01-28 05:13:00,46.8,40.0,30.18,WSW,244,1.0,1.0,77,0.00,,,0.00,Wunderground v.1.15,2013-01-28 13:13:00,
2013-01-28 05:23:00,46.8,40.0,30.18,WNW,299,2.0,2.0,77,0.00,,,0.00,Wunderground v.1.15,2013-01-28 13:23:00,
2013-01-28 05:33:00,46.8,40.3,30.18,West,260,2.0,2.0,78,0.00,,,0.00,Wunderground v.1.15,2013-01-28 13:33:00,
2013-01-28 05:42:00,46.7,40.5,30.18,WNW,289,1.0,1.0,79,0.00,,,0.00,Wunderground v.1.15,2013-01-28 13:42:00,
2013-01-28 05:53:00,46.6,41.1,30.18,WNW,295,1.0,1.0,81,0.00,,,0.00,Wunderground v.1.15,2013-01-28 13:53:00,
2013-01-28 06:03:00,46.4,40.9,30.17,West,274,1.0,1.0,81,0.00,,,0.00,Wunderground v.1.15,2013-01-28 14:03:00,
2013-01-28 06:13:00,46.3,40.8,30.18,WSW,253,1.0,1.0,81,0.00,,,0.00,Wunderground v.1.15,2013-01-28 14:13:00,
2013-01-28 06:23:00,46.2,40.7,30.18,WNW,290,1.0,4.0,81,0.00,,,0.00,Wunderground v.1.15,2013-01-28 14:23:00,
2013-01-28 06:33:00,46.3,40.5,30.18,North,354,2.0,2.0,80,0.00,,,0.00,Wunderground v.1.15,2013-01-28 14:33:00,
2013-01-28 06:43:00,46.3,40.5,30.18,WNW,287,1.0,1.0,80,0.00,,,0.00,Wunderground v.1.15,2013-01-28 14:43:00,
2013-01-28 06:53:00,46.2,40.4,30.19,NW,305,3.0,3.0,80,0.00,,,0.00,Wunderground v.1.15,2013-01-28 14:53:00,
2013-01-28 08:22:00,46.9,40.7,30.22,West,271,1.0,1.0,79,0.00,,,0.00,Wunderground v.1.15,2013-01-28 16:22:00,
2013-01-28 08:32:00,47.3,40.8,30.22,WNW,284,2.0,2.0,78,0.00,,,0.00,Wunderground v.1.15,2013-01-28 16:32:00,
2013-01-28 08:43:00,48.7,40.8,30.23,WNW,287,2.0,3.0,74,0.00,,,0.00,Wunderground v.1.15,2013-01-28 16:43:00,
2013-01-28 08:52:00,50.5,41.1,30.23,SW,220,2.0,2.0,70,0.00,,,0.00,Wunderground v.1.15,2013-01-28 16:52:00,
2013-01-28 09:02:00,52.0,41.4,30.23,WNW,301,2.0,2.0,67,0.00,,,0.00,Wunderground v.1.15,2013-01-28 17:02:00,
2013-01-28 09:13:00,53.7,41.4,30.23,NW,312,2.0,3.0,63,0.00,,,0.00,Wunderground v.1.15,2013-01-28 17:13:00,
2013-01-28 09:23:00,54.6,41.4,30.23,WSW,253,2.0,8.0,61,0.00,,,0.00,Wunderground v.1.15,2013-01-28 17:23:00,
2013-01-28 09:33:00,55.5,41.0,30.23,WNW,289,2.0,2.0,58,0.00,,,0.00,Wunderground v.1.15,2013-01-28 17:33:00,
2013-01-28 09:42:00,56.2,40.7,30.23,WNW,299,2.0,4.0,56,0.00,,,0.00,Wunderground v.1.15,2013-01-28 17:42:00,